sensor_id;sensor_type;location;lat;lon;timestamp;P1;durP1;ratioP1;P2;durP2;ratioP2
59788;SDS011;47353;51.614;5.530;2023-10-19T00:00:41;14.60;;;12.50;;
59788;SDS011;47353;51.614;5.530;2023-10-19T00:03:12;11.98;;;10.38;;
59788;SDS011;47353;51.614;5.530;2023-10-19T00:05:38;11.93;;;10.07;;
59788;SDS011;47353;51.614;5.530;2023-10-19T00:08:04;14.45;;;10.40;;
59788;SDS011;47353;51.614;5.530;2023-10-19T00:10:42;12.35;;;10.80;;
59788;SDS011;47353;51.614;5.530;2023-10-19T00:13:09;13.10;;;10.95;;
59788;SDS011;47353;51.614;5.530;2023-10-19T00:15:37;12.15;;;10.80;;
59788;SDS011;47353;51.614;5.530;2023-10-19T00:18:11;12.93;;;11.55;;
59788;SDS011;47353;51.614;5.530;2023-10-19T00:20:43;12.57;;;10.65;;
59788;SDS011;47353;51.614;5.530;2023-10-19T00:23:10;12.13;;;10.15;;
59788;SDS011;47353;51.614;5.530;2023-10-19T00:25:38;13.55;;;10.30;;
59788;SDS011;47353;51.614;5.530;2023-10-19T00:28:06;13.60;;;11.05;;
59788;SDS011;47353;51.614;5.530;2023-10-19T00:30:32;13.93;;;11.60;;
59788;SDS011;47353;51.614;5.530;2023-10-19T00:33:00;14.57;;;11.73;;
59788;SDS011;47353;51.614;5.530;2023-10-19T00:35:33;15.38;;;11.43;;
59788;SDS011;47353;51.614;5.530;2023-10-19T00:38:08;12.55;;;10.93;;
59788;SDS011;47353;51.614;5.530;2023-10-19T00:40:52;16.50;;;12.68;;
59788;SDS011;47353;51.614;5.530;2023-10-19T00:43:28;13.48;;;11.48;;
59788;SDS011;47353;51.614;5.530;2023-10-19T00:45:57;15.52;;;11.85;;
59788;SDS011;47353;51.614;5.530;2023-10-19T00:48:23;13.25;;;11.63;;
59788;SDS011;47353;51.614;5.530;2023-10-19T00:50:51;12.88;;;10.88;;
59788;SDS011;47353;51.614;5.530;2023-10-19T00:53:19;13.07;;;10.20;;
59788;SDS011;47353;51.614;5.530;2023-10-19T00:55:45;12.98;;;11.15;;
59788;SDS011;47353;51.614;5.530;2023-10-19T00:58:11;11.50;;;10.30;;
59788;SDS011;47353;51.614;5.530;2023-10-19T01:00:43;15.80;;;11.63;;
59788;SDS011;47353;51.614;5.530;2023-10-19T01:03:10;14.25;;;11.52;;
59788;SDS011;47353;51.614;5.530;2023-10-19T01:05:41;12.63;;;10.32;;
59788;SDS011;47353;51.614;5.530;2023-10-19T01:08:13;15.38;;;11.57;;
59788;SDS011;47353;51.614;5.530;2023-10-19T01:10:56;12.90;;;10.90;;
59788;SDS011;47353;51.614;5.530;2023-10-19T01:13:22;14.10;;;10.65;;
59788;SDS011;47353;51.614;5.530;2023-10-19T01:15:59;14.23;;;10.98;;
59788;SDS011;47353;51.614;5.530;2023-10-19T01:18:25;13.77;;;11.32;;
59788;SDS011;47353;51.614;5.530;2023-10-19T01:20:54;13.25;;;10.32;;
59788;SDS011;47353;51.614;5.530;2023-10-19T01:23:22;13.05;;;10.57;;
59788;SDS011;47353;51.614;5.530;2023-10-19T01:28:20;11.07;;;9.73;;
59788;SDS011;47353;51.614;5.530;2023-10-19T01:31:08;11.65;;;9.48;;
59788;SDS011;47353;51.614;5.530;2023-10-19T01:33:53;12.25;;;9.52;;
59788;SDS011;47353;51.614;5.530;2023-10-19T01:36:23;12.13;;;10.00;;
59788;SDS011;47353;51.614;5.530;2023-10-19T01:38:49;10.70;;;9.18;;
59788;SDS011;47353;51.614;5.530;2023-10-19T01:41:18;11.27;;;9.20;;
59788;SDS011;47353;51.614;5.530;2023-10-19T01:43:45;10.35;;;8.40;;
59788;SDS011;47353;51.614;5.530;2023-10-19T01:46:18;9.02;;;8.13;;
59788;SDS011;47353;51.614;5.530;2023-10-19T01:48:47;10.68;;;8.25;;
59788;SDS011;47353;51.614;5.530;2023-10-19T01:51:15;8.70;;;7.80;;
59788;SDS011;47353;51.614;5.530;2023-10-19T01:53:41;9.57;;;8.35;;
59788;SDS011;47353;51.614;5.530;2023-10-19T01:56:09;9.50;;;7.90;;
59788;SDS011;47353;51.614;5.530;2023-10-19T01:58:36;10.38;;;8.82;;
59788;SDS011;47353;51.614;5.530;2023-10-19T02:01:03;9.38;;;8.13;;
59788;SDS011;47353;51.614;5.530;2023-10-19T02:03:52;10.68;;;8.77;;
59788;SDS011;47353;51.614;5.530;2023-10-19T02:06:25;10.20;;;8.35;;
59788;SDS011;47353;51.614;5.530;2023-10-19T02:11:26;10.85;;;8.13;;
59788;SDS011;47353;51.614;5.530;2023-10-19T02:13:56;8.50;;;7.15;;
59788;SDS011;47353;51.614;5.530;2023-10-19T02:16:26;9.73;;;7.45;;
59788;SDS011;47353;51.614;5.530;2023-10-19T02:18:54;11.38;;;7.45;;
59788;SDS011;47353;51.614;5.530;2023-10-19T02:21:20;8.35;;;6.95;;
59788;SDS011;47353;51.614;5.530;2023-10-19T02:23:52;9.40;;;7.05;;
59788;SDS011;47353;51.614;5.530;2023-10-19T02:26:18;7.50;;;6.32;;
59788;SDS011;47353;51.614;5.530;2023-10-19T02:28:45;9.23;;;6.78;;
59788;SDS011;47353;51.614;5.530;2023-10-19T02:31:16;7.70;;;6.18;;
59788;SDS011;47353;51.614;5.530;2023-10-19T02:33:47;6.95;;;5.90;;
59788;SDS011;47353;51.614;5.530;2023-10-19T02:36:29;7.57;;;6.03;;
59788;SDS011;47353;51.614;5.530;2023-10-19T02:39:05;5.10;;;4.53;;
59788;SDS011;47353;51.614;5.530;2023-10-19T02:41:38;6.45;;;4.95;;
59788;SDS011;47353;51.614;5.530;2023-10-19T02:44:09;5.10;;;4.07;;
59788;SDS011;47353;51.614;5.530;2023-10-19T02:46:44;5.45;;;3.67;;
59788;SDS011;47353;51.614;5.530;2023-10-19T02:49:19;4.53;;;3.15;;
59788;SDS011;47353;51.614;5.530;2023-10-19T02:51:46;3.53;;;2.90;;
59788;SDS011;47353;51.614;5.530;2023-10-19T02:54:13;4.28;;;2.65;;
59788;SDS011;47353;51.614;5.530;2023-10-19T02:56:53;3.78;;;2.63;;
59788;SDS011;47353;51.614;5.530;2023-10-19T02:59:22;3.53;;;2.10;;
59788;SDS011;47353;51.614;5.530;2023-10-19T03:01:49;3.30;;;2.15;;
59788;SDS011;47353;51.614;5.530;2023-10-19T03:04:37;5.97;;;2.08;;
59788;SDS011;47353;51.614;5.530;2023-10-19T03:07:05;3.50;;;1.70;;
59788;SDS011;47353;51.614;5.530;2023-10-19T03:09:35;3.92;;;1.85;;
59788;SDS011;47353;51.614;5.530;2023-10-19T03:14:45;3.03;;;1.90;;
59788;SDS011;47353;51.614;5.530;2023-10-19T03:17:13;3.55;;;1.80;;
59788;SDS011;47353;51.614;5.530;2023-10-19T03:19:38;2.88;;;1.40;;
59788;SDS011;47353;51.614;5.530;2023-10-19T03:22:04;2.95;;;1.75;;
59788;SDS011;47353;51.614;5.530;2023-10-19T03:24:31;2.88;;;1.60;;
59788;SDS011;47353;51.614;5.530;2023-10-19T03:27:11;2.67;;;1.30;;
59788;SDS011;47353;51.614;5.530;2023-10-19T03:29:48;1.98;;;1.05;;
59788;SDS011;47353;51.614;5.530;2023-10-19T03:32:25;3.67;;;1.70;;
59788;SDS011;47353;51.614;5.530;2023-10-19T03:34:57;3.00;;;1.55;;
59788;SDS011;47353;51.614;5.530;2023-10-19T03:37:26;2.47;;;1.40;;
59788;SDS011;47353;51.614;5.530;2023-10-19T03:39:55;1.65;;;1.20;;
59788;SDS011;47353;51.614;5.530;2023-10-19T03:42:21;1.42;;;1.13;;
59788;SDS011;47353;51.614;5.530;2023-10-19T03:44:50;1.65;;;1.27;;
59788;SDS011;47353;51.614;5.530;2023-10-19T03:47:18;1.40;;;1.27;;
59788;SDS011;47353;51.614;5.530;2023-10-19T03:49:45;1.50;;;1.20;;
59788;SDS011;47353;51.614;5.530;2023-10-19T03:52:12;1.98;;;1.33;;
59788;SDS011;47353;51.614;5.530;2023-10-19T03:54:38;2.15;;;1.80;;
59788;SDS011;47353;51.614;5.530;2023-10-19T03:57:16;3.20;;;2.28;;
59788;SDS011;47353;51.614;5.530;2023-10-19T04:00:00;6.30;;;3.03;;
59788;SDS011;47353;51.614;5.530;2023-10-19T04:02:28;2.97;;;2.60;;
59788;SDS011;47353;51.614;5.530;2023-10-19T04:04:55;3.15;;;2.55;;
59788;SDS011;47353;51.614;5.530;2023-10-19T04:07:22;3.92;;;3.20;;
59788;SDS011;47353;51.614;5.530;2023-10-19T04:09:52;3.50;;;3.15;;
59788;SDS011;47353;51.614;5.530;2023-10-19T04:12:31;3.80;;;2.92;;
59788;SDS011;47353;51.614;5.530;2023-10-19T04:15:00;5.63;;;4.05;;
59788;SDS011;47353;51.614;5.530;2023-10-19T04:17:41;7.05;;;4.57;;
59788;SDS011;47353;51.614;5.530;2023-10-19T04:20:08;5.00;;;3.97;;
59788;SDS011;47353;51.614;5.530;2023-10-19T04:22:55;7.80;;;4.10;;
59788;SDS011;47353;51.614;5.530;2023-10-19T04:25:30;4.32;;;3.90;;
59788;SDS011;47353;51.614;5.530;2023-10-19T04:27:56;5.47;;;3.70;;
59788;SDS011;47353;51.614;5.530;2023-10-19T04:30:22;5.53;;;4.07;;
59788;SDS011;47353;51.614;5.530;2023-10-19T04:32:48;7.20;;;4.40;;
59788;SDS011;47353;51.614;5.530;2023-10-19T04:35:14;3.65;;;3.35;;
59788;SDS011;47353;51.614;5.530;2023-10-19T04:37:47;5.10;;;4.18;;
59788;SDS011;47353;51.614;5.530;2023-10-19T04:40:13;5.35;;;4.20;;
59788;SDS011;47353;51.614;5.530;2023-10-19T04:42:38;5.60;;;3.90;;
59788;SDS011;47353;51.614;5.530;2023-10-19T04:45:04;5.18;;;3.50;;
59788;SDS011;47353;51.614;5.530;2023-10-19T04:47:31;4.43;;;3.72;;
59788;SDS011;47353;51.614;5.530;2023-10-19T04:49:58;5.55;;;3.30;;
59788;SDS011;47353;51.614;5.530;2023-10-19T04:52:23;6.05;;;3.20;;
59788;SDS011;47353;51.614;5.530;2023-10-19T04:54:48;5.05;;;3.30;;
59788;SDS011;47353;51.614;5.530;2023-10-19T04:57:14;6.05;;;3.30;;
59788;SDS011;47353;51.614;5.530;2023-10-19T04:59:39;7.03;;;2.63;;
59788;SDS011;47353;51.614;5.530;2023-10-19T05:02:06;3.33;;;2.70;;
59788;SDS011;47353;51.614;5.530;2023-10-19T05:04:31;3.67;;;2.53;;
59788;SDS011;47353;51.614;5.530;2023-10-19T05:06:57;5.68;;;2.90;;
59788;SDS011;47353;51.614;5.530;2023-10-19T05:09:22;4.97;;;2.47;;
59788;SDS011;47353;51.614;5.530;2023-10-19T05:11:47;4.40;;;2.60;;
59788;SDS011;47353;51.614;5.530;2023-10-19T05:14:13;4.15;;;2.50;;
59788;SDS011;47353;51.614;5.530;2023-10-19T05:16:39;5.35;;;2.45;;
59788;SDS011;47353;51.614;5.530;2023-10-19T05:19:05;4.82;;;2.97;;
59788;SDS011;47353;51.614;5.530;2023-10-19T05:21:30;6.53;;;2.78;;
59788;SDS011;47353;51.614;5.530;2023-10-19T05:23:56;5.32;;;2.75;;
59788;SDS011;47353;51.614;5.530;2023-10-19T05:26:21;4.82;;;2.50;;
59788;SDS011;47353;51.614;5.530;2023-10-19T05:28:47;5.20;;;2.47;;
59788;SDS011;47353;51.614;5.530;2023-10-19T05:31:13;3.75;;;2.20;;
59788;SDS011;47353;51.614;5.530;2023-10-19T05:33:39;3.25;;;2.17;;
59788;SDS011;47353;51.614;5.530;2023-10-19T05:36:05;4.38;;;2.10;;
59788;SDS011;47353;51.614;5.530;2023-10-19T05:38:31;4.50;;;2.15;;
59788;SDS011;47353;51.614;5.530;2023-10-19T05:40:57;5.22;;;2.10;;
59788;SDS011;47353;51.614;5.530;2023-10-19T05:43:24;5.93;;;1.88;;
59788;SDS011;47353;51.614;5.530;2023-10-19T05:45:50;5.78;;;2.40;;
59788;SDS011;47353;51.614;5.530;2023-10-19T05:48:16;3.90;;;2.30;;
59788;SDS011;47353;51.614;5.530;2023-10-19T05:50:42;4.40;;;2.03;;
59788;SDS011;47353;51.614;5.530;2023-10-19T05:53:07;4.72;;;2.22;;
59788;SDS011;47353;51.614;5.530;2023-10-19T05:55:33;4.85;;;2.13;;
59788;SDS011;47353;51.614;5.530;2023-10-19T05:58:01;10.30;;;2.10;;
59788;SDS011;47353;51.614;5.530;2023-10-19T06:00:29;5.00;;;2.20;;
59788;SDS011;47353;51.614;5.530;2023-10-19T06:02:55;4.95;;;2.10;;
59788;SDS011;47353;51.614;5.530;2023-10-19T06:05:22;6.25;;;2.10;;
59788;SDS011;47353;51.614;5.530;2023-10-19T06:07:48;7.10;;;2.25;;
59788;SDS011;47353;51.614;5.530;2023-10-19T06:10:21;3.67;;;1.75;;
59788;SDS011;47353;51.614;5.530;2023-10-19T06:12:50;6.90;;;2.40;;
59788;SDS011;47353;51.614;5.530;2023-10-19T06:15:18;5.05;;;2.08;;
59788;SDS011;47353;51.614;5.530;2023-10-19T06:17:49;5.25;;;1.80;;
59788;SDS011;47353;51.614;5.530;2023-10-19T06:20:15;5.43;;;2.03;;
59788;SDS011;47353;51.614;5.530;2023-10-19T06:22:52;5.55;;;2.40;;
59788;SDS011;47353;51.614;5.530;2023-10-19T06:25:22;5.65;;;2.10;;
59788;SDS011;47353;51.614;5.530;2023-10-19T06:27:48;4.97;;;2.17;;
59788;SDS011;47353;51.614;5.530;2023-10-19T06:30:15;4.97;;;2.10;;
59788;SDS011;47353;51.614;5.530;2023-10-19T06:32:48;5.75;;;2.40;;
59788;SDS011;47353;51.614;5.530;2023-10-19T06:35:15;4.70;;;2.00;;
59788;SDS011;47353;51.614;5.530;2023-10-19T06:37:42;5.00;;;2.08;;
59788;SDS011;47353;51.614;5.530;2023-10-19T06:40:08;6.82;;;2.50;;
59788;SDS011;47353;51.614;5.530;2023-10-19T06:42:36;6.60;;;2.33;;
59788;SDS011;47353;51.614;5.530;2023-10-19T06:45:02;5.30;;;1.98;;
59788;SDS011;47353;51.614;5.530;2023-10-19T06:47:28;6.15;;;2.05;;
59788;SDS011;47353;51.614;5.530;2023-10-19T06:49:54;3.78;;;1.77;;
59788;SDS011;47353;51.614;5.530;2023-10-19T06:52:21;3.63;;;1.90;;
59788;SDS011;47353;51.614;5.530;2023-10-19T06:54:46;6.30;;;2.45;;
59788;SDS011;47353;51.614;5.530;2023-10-19T06:57:12;5.57;;;1.90;;
59788;SDS011;47353;51.614;5.530;2023-10-19T06:59:37;4.43;;;2.20;;
59788;SDS011;47353;51.614;5.530;2023-10-19T07:02:04;6.60;;;2.25;;
59788;SDS011;47353;51.614;5.530;2023-10-19T07:04:29;6.13;;;2.20;;
59788;SDS011;47353;51.614;5.530;2023-10-19T07:06:55;5.40;;;2.10;;
59788;SDS011;47353;51.614;5.530;2023-10-19T07:09:21;6.13;;;2.25;;
59788;SDS011;47353;51.614;5.530;2023-10-19T07:11:48;4.88;;;2.28;;
59788;SDS011;47353;51.614;5.530;2023-10-19T07:14:18;4.45;;;2.40;;
59788;SDS011;47353;51.614;5.530;2023-10-19T07:16:43;4.65;;;3.17;;
59788;SDS011;47353;51.614;5.530;2023-10-19T07:19:09;6.75;;;2.97;;
59788;SDS011;47353;51.614;5.530;2023-10-19T07:21:35;6.22;;;2.58;;
59788;SDS011;47353;51.614;5.530;2023-10-19T07:24:02;6.50;;;2.92;;
59788;SDS011;47353;51.614;5.530;2023-10-19T07:26:31;5.25;;;2.85;;
59788;SDS011;47353;51.614;5.530;2023-10-19T07:28:59;5.10;;;2.90;;
59788;SDS011;47353;51.614;5.530;2023-10-19T07:31:25;5.38;;;3.30;;
59788;SDS011;47353;51.614;5.530;2023-10-19T07:33:52;4.60;;;2.92;;
59788;SDS011;47353;51.614;5.530;2023-10-19T07:36:20;5.10;;;2.88;;
59788;SDS011;47353;51.614;5.530;2023-10-19T07:38:48;10.70;;;3.40;;
59788;SDS011;47353;51.614;5.530;2023-10-19T07:41:14;5.40;;;2.70;;
59788;SDS011;47353;51.614;5.530;2023-10-19T07:43:40;7.25;;;3.17;;
59788;SDS011;47353;51.614;5.530;2023-10-19T07:46:05;4.93;;;2.72;;
59788;SDS011;47353;51.614;5.530;2023-10-19T07:48:33;4.32;;;2.42;;
59788;SDS011;47353;51.614;5.530;2023-10-19T07:50:58;6.32;;;2.30;;
59788;SDS011;47353;51.614;5.530;2023-10-19T07:53:24;5.93;;;2.80;;
59788;SDS011;47353;51.614;5.530;2023-10-19T07:55:49;4.50;;;2.60;;
59788;SDS011;47353;51.614;5.530;2023-10-19T07:58:15;4.88;;;2.25;;
59788;SDS011;47353;51.614;5.530;2023-10-19T08:00:40;6.20;;;2.38;;
59788;SDS011;47353;51.614;5.530;2023-10-19T08:03:07;4.43;;;2.10;;
59788;SDS011;47353;51.614;5.530;2023-10-19T08:05:34;6.00;;;2.10;;
59788;SDS011;47353;51.614;5.530;2023-10-19T08:08:01;5.45;;;2.15;;
59788;SDS011;47353;51.614;5.530;2023-10-19T08:10:28;9.23;;;2.72;;
59788;SDS011;47353;51.614;5.530;2023-10-19T08:12:54;6.28;;;2.53;;
59788;SDS011;47353;51.614;5.530;2023-10-19T08:15:20;5.88;;;2.38;;
59788;SDS011;47353;51.614;5.530;2023-10-19T08:17:50;8.02;;;2.38;;
59788;SDS011;47353;51.614;5.530;2023-10-19T08:20:18;5.60;;;2.20;;
59788;SDS011;47353;51.614;5.530;2023-10-19T08:22:55;7.72;;;2.55;;
59788;SDS011;47353;51.614;5.530;2023-10-19T08:25:22;6.75;;;2.67;;
59788;SDS011;47353;51.614;5.530;2023-10-19T08:27:48;7.63;;;2.50;;
59788;SDS011;47353;51.614;5.530;2023-10-19T08:30:15;7.72;;;2.65;;
59788;SDS011;47353;51.614;5.530;2023-10-19T08:32:42;7.50;;;2.33;;
59788;SDS011;47353;51.614;5.530;2023-10-19T08:35:08;4.65;;;2.13;;
59788;SDS011;47353;51.614;5.530;2023-10-19T08:37:37;5.68;;;2.28;;
59788;SDS011;47353;51.614;5.530;2023-10-19T08:40:05;6.28;;;2.20;;
59788;SDS011;47353;51.614;5.530;2023-10-19T08:42:40;4.68;;;2.03;;
59788;SDS011;47353;51.614;5.530;2023-10-19T08:45:12;5.25;;;2.40;;
59788;SDS011;47353;51.614;5.530;2023-10-19T08:47:57;5.28;;;2.03;;
59788;SDS011;47353;51.614;5.530;2023-10-19T08:50:27;6.93;;;1.80;;
59788;SDS011;47353;51.614;5.530;2023-10-19T08:52:54;5.88;;;2.15;;
59788;SDS011;47353;51.614;5.530;2023-10-19T08:55:21;7.43;;;2.13;;
59788;SDS011;47353;51.614;5.530;2023-10-19T08:57:50;5.40;;;2.20;;
59788;SDS011;47353;51.614;5.530;2023-10-19T09:00:17;4.50;;;1.63;;
59788;SDS011;47353;51.614;5.530;2023-10-19T09:02:44;7.63;;;1.95;;
59788;SDS011;47353;51.614;5.530;2023-10-19T09:05:10;4.70;;;1.50;;
59788;SDS011;47353;51.614;5.530;2023-10-19T09:07:45;3.80;;;1.70;;
59788;SDS011;47353;51.614;5.530;2023-10-19T09:10:15;4.18;;;1.80;;
59788;SDS011;47353;51.614;5.530;2023-10-19T09:12:41;4.93;;;1.90;;
59788;SDS011;47353;51.614;5.530;2023-10-19T09:15:18;6.00;;;1.98;;
59788;SDS011;47353;51.614;5.530;2023-10-19T09:17:48;5.50;;;1.67;;
59788;SDS011;47353;51.614;5.530;2023-10-19T09:20:14;5.55;;;1.90;;
59788;SDS011;47353;51.614;5.530;2023-10-19T09:22:43;5.90;;;1.60;;
59788;SDS011;47353;51.614;5.530;2023-10-19T09:25:09;6.78;;;1.67;;
59788;SDS011;47353;51.614;5.530;2023-10-19T09:27:35;4.68;;;1.45;;
59788;SDS011;47353;51.614;5.530;2023-10-19T09:30:00;4.22;;;1.50;;
59788;SDS011;47353;51.614;5.530;2023-10-19T09:32:28;6.32;;;1.70;;
59788;SDS011;47353;51.614;5.530;2023-10-19T09:34:55;4.97;;;1.50;;
59788;SDS011;47353;51.614;5.530;2023-10-19T09:37:21;3.88;;;1.40;;
59788;SDS011;47353;51.614;5.530;2023-10-19T09:39:46;4.93;;;1.83;;
59788;SDS011;47353;51.614;5.530;2023-10-19T09:42:12;4.63;;;1.40;;
59788;SDS011;47353;51.614;5.530;2023-10-19T09:44:42;6.20;;;1.20;;
59788;SDS011;47353;51.614;5.530;2023-10-19T09:47:18;4.18;;;1.73;;
59788;SDS011;47353;51.614;5.530;2023-10-19T09:49:51;6.68;;;1.65;;
59788;SDS011;47353;51.614;5.530;2023-10-19T09:52:17;4.60;;;1.60;;
59788;SDS011;47353;51.614;5.530;2023-10-19T09:57:47;9.32;;;1.60;;
59788;SDS011;47353;51.614;5.530;2023-10-19T10:00:19;5.45;;;1.50;;
59788;SDS011;47353;51.614;5.530;2023-10-19T10:02:57;4.40;;;1.33;;
59788;SDS011;47353;51.614;5.530;2023-10-19T10:10:44;4.65;;;1.60;;
59788;SDS011;47353;51.614;5.530;2023-10-19T10:15:55;6.68;;;1.80;;
59788;SDS011;47353;51.614;5.530;2023-10-19T10:18:26;4.45;;;1.50;;
59788;SDS011;47353;51.614;5.530;2023-10-19T10:26:11;6.47;;;1.77;;
59788;SDS011;47353;51.614;5.530;2023-10-19T10:28:38;5.43;;;1.42;;
59788;SDS011;47353;51.614;5.530;2023-10-19T10:31:10;6.07;;;1.50;;
59788;SDS011;47353;51.614;5.530;2023-10-19T10:36:05;5.40;;;1.60;;
59788;SDS011;47353;51.614;5.530;2023-10-19T10:38:34;5.28;;;1.60;;
59788;SDS011;47353;51.614;5.530;2023-10-19T10:41:03;5.53;;;1.58;;
59788;SDS011;47353;51.614;5.530;2023-10-19T10:43:29;5.47;;;1.35;;
59788;SDS011;47353;51.614;5.530;2023-10-19T10:46:07;10.43;;;2.17;;
59788;SDS011;47353;51.614;5.530;2023-10-19T10:48:32;4.75;;;1.70;;
59788;SDS011;47353;51.614;5.530;2023-10-19T10:50:58;3.28;;;1.35;;
59788;SDS011;47353;51.614;5.530;2023-10-19T10:53:24;5.63;;;1.80;;
59788;SDS011;47353;51.614;5.530;2023-10-19T10:55:57;3.15;;;1.40;;
59788;SDS011;47353;51.614;5.530;2023-10-19T10:58:25;5.13;;;1.75;;
59788;SDS011;47353;51.614;5.530;2023-10-19T11:00:50;7.50;;;1.90;;
59788;SDS011;47353;51.614;5.530;2023-10-19T11:03:19;6.72;;;1.58;;
59788;SDS011;47353;51.614;5.530;2023-10-19T11:05:47;6.20;;;2.10;;
59788;SDS011;47353;51.614;5.530;2023-10-19T11:08:15;6.43;;;1.63;;
59788;SDS011;47353;51.614;5.530;2023-10-19T11:10:42;6.63;;;1.83;;
59788;SDS011;47353;51.614;5.530;2023-10-19T11:13:12;4.78;;;1.60;;
59788;SDS011;47353;51.614;5.530;2023-10-19T11:15:48;6.80;;;1.98;;
59788;SDS011;47353;51.614;5.530;2023-10-19T11:21:15;5.93;;;2.00;;
59788;SDS011;47353;51.614;5.530;2023-10-19T11:23:43;5.03;;;2.03;;
59788;SDS011;47353;51.614;5.530;2023-10-19T11:26:11;6.53;;;1.90;;
59788;SDS011;47353;51.614;5.530;2023-10-19T11:28:37;5.30;;;1.75;;
59788;SDS011;47353;51.614;5.530;2023-10-19T11:31:14;6.10;;;1.90;;
59788;SDS011;47353;51.614;5.530;2023-10-19T11:33:42;6.13;;;2.08;;
59788;SDS011;47353;51.614;5.530;2023-10-19T11:36:08;5.88;;;1.80;;
59788;SDS011;47353;51.614;5.530;2023-10-19T11:38:37;7.25;;;2.00;;
59788;SDS011;47353;51.614;5.530;2023-10-19T11:41:06;6.70;;;1.83;;
59788;SDS011;47353;51.614;5.530;2023-10-19T11:43:32;6.53;;;1.70;;
59788;SDS011;47353;51.614;5.530;2023-10-19T11:45:59;6.88;;;1.80;;
59788;SDS011;47353;51.614;5.530;2023-10-19T11:48:25;6.97;;;2.20;;
59788;SDS011;47353;51.614;5.530;2023-10-19T11:50:51;4.90;;;1.90;;
59788;SDS011;47353;51.614;5.530;2023-10-19T11:53:16;8.00;;;2.25;;
59788;SDS011;47353;51.614;5.530;2023-10-19T11:55:42;6.15;;;2.58;;
59788;SDS011;47353;51.614;5.530;2023-10-19T11:58:08;5.38;;;1.98;;
59788;SDS011;47353;51.614;5.530;2023-10-19T12:00:39;5.10;;;1.88;;
59788;SDS011;47353;51.614;5.530;2023-10-19T12:03:04;4.95;;;1.92;;
59788;SDS011;47353;51.614;5.530;2023-10-19T12:05:31;5.93;;;1.80;;
59788;SDS011;47353;51.614;5.530;2023-10-19T12:07:57;8.70;;;2.10;;
59788;SDS011;47353;51.614;5.530;2023-10-19T12:10:22;5.38;;;1.60;;
59788;SDS011;47353;51.614;5.530;2023-10-19T12:12:57;5.60;;;1.70;;
59788;SDS011;47353;51.614;5.530;2023-10-19T12:15:23;5.75;;;2.03;;
59788;SDS011;47353;51.614;5.530;2023-10-19T12:17:48;6.25;;;1.65;;
59788;SDS011;47353;51.614;5.530;2023-10-19T12:20:15;8.15;;;2.03;;
59788;SDS011;47353;51.614;5.530;2023-10-19T12:22:41;5.20;;;1.90;;
59788;SDS011;47353;51.614;5.530;2023-10-19T12:25:07;6.00;;;1.70;;
59788;SDS011;47353;51.614;5.530;2023-10-19T12:27:33;7.47;;;2.20;;
59788;SDS011;47353;51.614;5.530;2023-10-19T12:29:58;4.40;;;1.60;;
59788;SDS011;47353;51.614;5.530;2023-10-19T12:32:27;5.43;;;1.88;;
59788;SDS011;47353;51.614;5.530;2023-10-19T12:34:52;5.47;;;1.77;;
59788;SDS011;47353;51.614;5.530;2023-10-19T12:37:23;7.80;;;1.90;;
59788;SDS011;47353;51.614;5.530;2023-10-19T12:39:49;4.75;;;1.70;;
59788;SDS011;47353;51.614;5.530;2023-10-19T12:42:16;5.78;;;1.95;;
59788;SDS011;47353;51.614;5.530;2023-10-19T12:44:42;5.47;;;1.80;;
59788;SDS011;47353;51.614;5.530;2023-10-19T12:47:08;8.27;;;2.17;;
59788;SDS011;47353;51.614;5.530;2023-10-19T12:49:38;8.25;;;2.00;;
59788;SDS011;47353;51.614;5.530;2023-10-19T12:52:04;6.10;;;2.22;;
59788;SDS011;47353;51.614;5.530;2023-10-19T12:54:32;7.50;;;1.98;;
59788;SDS011;47353;51.614;5.530;2023-10-19T12:56:57;6.72;;;1.98;;
59788;SDS011;47353;51.614;5.530;2023-10-19T12:59:23;6.72;;;2.00;;
59788;SDS011;47353;51.614;5.530;2023-10-19T13:01:48;5.80;;;1.85;;
59788;SDS011;47353;51.614;5.530;2023-10-19T13:04:17;7.10;;;2.22;;
59788;SDS011;47353;51.614;5.530;2023-10-19T13:06:44;7.95;;;2.00;;
59788;SDS011;47353;51.614;5.530;2023-10-19T13:09:12;8.32;;;2.20;;
59788;SDS011;47353;51.614;5.530;2023-10-19T13:11:40;6.07;;;1.92;;
59788;SDS011;47353;51.614;5.530;2023-10-19T13:14:08;8.35;;;2.22;;
59788;SDS011;47353;51.614;5.530;2023-10-19T13:16:35;7.95;;;2.00;;
59788;SDS011;47353;51.614;5.530;2023-10-19T13:19:00;5.35;;;1.73;;
59788;SDS011;47353;51.614;5.530;2023-10-19T13:21:34;5.75;;;1.70;;
59788;SDS011;47353;51.614;5.530;2023-10-19T13:23:59;8.43;;;2.80;;
59788;SDS011;47353;51.614;5.530;2023-10-19T13:26:26;5.90;;;2.30;;
59788;SDS011;47353;51.614;5.530;2023-10-19T13:28:52;6.63;;;2.22;;
59788;SDS011;47353;51.614;5.530;2023-10-19T13:31:20;7.10;;;2.45;;
59788;SDS011;47353;51.614;5.530;2023-10-19T13:33:47;5.78;;;2.03;;
59788;SDS011;47353;51.614;5.530;2023-10-19T13:36:13;5.90;;;2.25;;
59788;SDS011;47353;51.614;5.530;2023-10-19T13:38:38;4.82;;;2.00;;
59788;SDS011;47353;51.614;5.530;2023-10-19T13:41:04;3.55;;;1.75;;
59788;SDS011;47353;51.614;5.530;2023-10-19T13:43:34;10.00;;;2.35;;
59788;SDS011;47353;51.614;5.530;2023-10-19T13:46:00;4.45;;;1.80;;
59788;SDS011;47353;51.614;5.530;2023-10-19T13:48:26;4.55;;;2.05;;
59788;SDS011;47353;51.614;5.530;2023-10-19T13:50:52;6.30;;;2.17;;
59788;SDS011;47353;51.614;5.530;2023-10-19T13:53:25;6.80;;;2.42;;
59788;SDS011;47353;51.614;5.530;2023-10-19T13:55:55;6.38;;;2.25;;
59788;SDS011;47353;51.614;5.530;2023-10-19T13:58:20;6.43;;;2.42;;
59788;SDS011;47353;51.614;5.530;2023-10-19T14:00:46;8.50;;;3.17;;
59788;SDS011;47353;51.614;5.530;2023-10-19T14:03:14;4.80;;;2.20;;
59788;SDS011;47353;51.614;5.530;2023-10-19T14:05:40;6.70;;;2.70;;
59788;SDS011;47353;51.614;5.530;2023-10-19T14:08:17;5.18;;;2.33;;
59788;SDS011;47353;51.614;5.530;2023-10-19T14:10:44;6.93;;;2.10;;
59788;SDS011;47353;51.614;5.530;2023-10-19T14:13:10;4.88;;;2.30;;
59788;SDS011;47353;51.614;5.530;2023-10-19T14:15:42;4.75;;;2.42;;
59788;SDS011;47353;51.614;5.530;2023-10-19T14:18:08;7.57;;;3.10;;
59788;SDS011;47353;51.614;5.530;2023-10-19T14:20:34;3.55;;;2.30;;
59788;SDS011;47353;51.614;5.530;2023-10-19T14:23:00;4.57;;;2.10;;
59788;SDS011;47353;51.614;5.530;2023-10-19T14:25:28;6.75;;;2.83;;
59788;SDS011;47353;51.614;5.530;2023-10-19T14:27:54;7.82;;;2.83;;
59788;SDS011;47353;51.614;5.530;2023-10-19T14:30:24;6.43;;;2.70;;
59788;SDS011;47353;51.614;5.530;2023-10-19T14:32:51;5.88;;;2.40;;
59788;SDS011;47353;51.614;5.530;2023-10-19T14:35:18;9.05;;;2.60;;
59788;SDS011;47353;51.614;5.530;2023-10-19T14:37:45;7.97;;;2.90;;
59788;SDS011;47353;51.614;5.530;2023-10-19T14:40:14;5.63;;;2.40;;
59788;SDS011;47353;51.614;5.530;2023-10-19T14:42:42;5.43;;;2.30;;
59788;SDS011;47353;51.614;5.530;2023-10-19T14:45:09;4.65;;;2.50;;
59788;SDS011;47353;51.614;5.530;2023-10-19T14:47:36;6.28;;;2.30;;
59788;SDS011;47353;51.614;5.530;2023-10-19T14:50:03;4.70;;;2.25;;
59788;SDS011;47353;51.614;5.530;2023-10-19T14:52:29;5.72;;;2.60;;
59788;SDS011;47353;51.614;5.530;2023-10-19T14:54:55;7.97;;;2.72;;
59788;SDS011;47353;51.614;5.530;2023-10-19T14:57:20;7.63;;;2.80;;
59788;SDS011;47353;51.614;5.530;2023-10-19T14:59:46;7.65;;;2.42;;
59788;SDS011;47353;51.614;5.530;2023-10-19T15:02:12;4.53;;;2.10;;
59788;SDS011;47353;51.614;5.530;2023-10-19T15:04:40;5.18;;;2.15;;
59788;SDS011;47353;51.614;5.530;2023-10-19T15:07:05;6.57;;;2.40;;
59788;SDS011;47353;51.614;5.530;2023-10-19T15:09:31;7.70;;;2.10;;
59788;SDS011;47353;51.614;5.530;2023-10-19T15:11:58;5.85;;;2.30;;
59788;SDS011;47353;51.614;5.530;2023-10-19T15:14:24;5.90;;;2.20;;
59788;SDS011;47353;51.614;5.530;2023-10-19T15:16:50;6.97;;;2.00;;
59788;SDS011;47353;51.614;5.530;2023-10-19T15:19:16;4.45;;;1.98;;
59788;SDS011;47353;51.614;5.530;2023-10-19T15:21:43;4.78;;;2.08;;